Time;durP1;ratioP1;P1;durP2;ratioP2;P2;SDS_P1;SDS_P2;PMS_P1;PMS_P2;Temp;Humidity;BMP_temperature;BMP_pressure;BME280_temperature;BME280_humidity;BME280_pressure;Samples;Min_cycle;Max_cycle;Signal;HPM_P1;HPM_P2
2024/04/10 00:02:04;;;;;;;3.33;1.42;;;;;;;;;;6660213;26;20051;-73
2024/04/10 00:05:08;;;;;;;3.72;1.90;;;;;;;;;;6622956;26;19997;-73
2024/04/10 00:08:11;;;;;;;6.43;1.77;;;;;;;;;;6644465;26;20006;-73
2024/04/10 00:11:14;;;;;;;7.63;2.05;;;;;;;;;;6653093;26;20018;-73
2024/04/10 00:14:17;;;;;;;3.40;1.85;;;;;;;;;;6641325;26;20016;-74
2024/04/10 00:17:19;;;;;;;4.85;1.70;;;;;;;;;;6631552;26;20747;-73
2024/04/10 00:20:23;;;;;;;3.92;2.15;;;;;;;;;;6656993;26;20398;-74
2024/04/10 00:23:26;;;;;;;5.35;2.40;;;;;;;;;;6658750;26;20409;-73
2024/04/10 00:26:29;;;;;;;4.22;2.92;;;;;;;;;;6646891;26;20017;-74
2024/04/10 00:29:32;;;;;;;3.58;1.90;;;;;;;;;;6653057;26;20060;-74
2024/04/10 00:32:35;;;;;;;4.07;2.58;;;;;;;;;;6638710;26;20048;-73
2024/04/10 00:35:41;;;;;;;4.03;1.77;;;;;;;;;;6642537;26;20016;-74
2024/04/10 00:38:44;;;;;;;3.55;2.47;;;;;;;;;;6656417;26;20040;-73
2024/04/10 00:41:47;;;;;;;4.32;1.77;;;;;;;;;;6648930;26;20005;-75
2024/04/10 00:44:54;;;;;;;3.47;2.15;;;;;;;;;;6647023;26;20000;-74
2024/04/10 00:47:56;;;;;;;3.70;2.42;;;;;;;;;;6644141;26;20040;-73
2024/04/10 00:50:59;;;;;;;4.57;2.78;;;;;;;;;;6659559;26;20004;-73
2024/04/10 00:54:05;;;;;;;5.63;1.92;;;;;;;;;;6608102;26;20015;-73
2024/04/10 00:57:08;;;;;;;4.65;2.22;;;;;;;;;;6645925;26;20332;-73
2024/04/10 01:00:12;;;;;;;6.20;2.72;;;;;;;;;;6666246;26;20009;-72
2024/04/10 01:03:15;;;;;;;4.50;2.20;;;;;;;;;;6683038;26;20381;-72
2024/04/10 01:06:18;;;;;;;5.60;3.42;;;;;;;;;;6621057;26;20833;-73
2024/04/10 01:09:21;;;;;;;5.55;3.33;;;;;;;;;;6647202;26;20052;-72
2024/04/10 01:12:26;;;;;;;4.65;3.13;;;;;;;;;;6637177;26;20000;-71
2024/04/10 01:15:29;;;;;;;6.40;3.30;;;;;;;;;;6652633;26;20081;-72
2024/04/10 01:18:31;;;;;;;9.02;3.10;;;;;;;;;;6647900;26;20005;-72
2024/04/10 01:21:34;;;;;;;4.75;3.00;;;;;;;;;;6612205;26;20473;-73
2024/04/10 01:24:37;;;;;;;4.43;3.28;;;;;;;;;;6652961;26;20015;-72
2024/04/10 01:27:40;;;;;;;5.55;3.33;;;;;;;;;;6666223;26;20085;-73
2024/04/10 01:30:43;;;;;;;5.22;2.72;;;;;;;;;;6652311;26;20500;-72
2024/04/10 01:33:46;;;;;;;4.93;2.78;;;;;;;;;;6628305;26;20000;-71
2024/04/10 01:36:49;;;;;;;4.53;2.58;;;;;;;;;;6644934;26;20016;-73
2024/04/10 01:39:51;;;;;;;4.20;2.42;;;;;;;;;;6661642;26;20005;-72
2024/04/10 01:42:54;;;;;;;5.82;3.00;;;;;;;;;;6644947;26;20470;-73
2024/04/10 01:45:57;;;;;;;4.85;3.05;;;;;;;;;;6651015;26;20077;-73
2024/04/10 01:49:07;;;;;;;5.82;3.53;;;;;;;;;;6667176;26;20477;-72
2024/04/10 01:52:10;;;;;;;7.60;3.13;;;;;;;;;;6648694;26;20017;-73
2024/04/10 01:55:12;;;;;;;5.30;3.30;;;;;;;;;;6653302;26;20028;-73
2024/04/10 01:58:19;;;;;;;6.88;2.22;;;;;;;;;;6641017;26;20004;-73
2024/04/10 02:01:22;;;;;;;9.43;3.13;;;;;;;;;;6622297;26;20016;-73
2024/04/10 02:04:24;;;;;;;5.75;2.28;;;;;;;;;;6653065;26;20033;-73
2024/04/10 02:07:27;;;;;;;5.38;2.60;;;;;;;;;;6649065;26;20012;-73
2024/04/10 02:10:29;;;;;;;6.35;4.45;;;;;;;;;;6650256;26;20022;-73
2024/04/10 02:13:32;;;;;;;5.47;2.67;;;;;;;;;;6627052;26;20011;-73
2024/04/10 02:16:35;;;;;;;4.82;2.90;;;;;;;;;;6655852;26;20045;-73
2024/04/10 02:19:37;;;;;;;7.40;2.70;;;;;;;;;;6644414;26;20860;-73
2024/04/10 02:22:42;;;;;;;4.68;3.25;;;;;;;;;;6650665;26;20008;-73
2024/04/10 02:25:45;;;;;;;4.35;2.63;;;;;;;;;;6661764;26;20526;-73
2024/04/10 02:28:49;;;;;;;4.25;2.53;;;;;;;;;;6645698;26;20074;-73
2024/04/10 02:31:55;;;;;;;4.80;3.25;;;;;;;;;;6648514;26;20044;-73
2024/04/10 02:34:57;;;;;;;5.22;3.38;;;;;;;;;;6622519;26;20001;-73
2024/04/10 02:38:00;;;;;;;4.60;3.13;;;;;;;;;;6647722;26;20878;-73
2024/04/10 02:41:04;;;;;;;6.43;3.13;;;;;;;;;;6638192;26;20001;-73
2024/04/10 02:44:06;;;;;;;12.65;3.65;;;;;;;;;;6619189;26;20481;-73
2024/04/10 02:47:11;;;;;;;4.88;2.78;;;;;;;;;;6659925;26;20011;-73
2024/04/10 02:50:13;;;;;;;6.88;4.00;;;;;;;;;;6632581;26;20020;-73
2024/04/10 02:53:16;;;;;;;5.63;3.22;;;;;;;;;;6625464;26;20056;-73
2024/04/10 02:56:20;;;;;;;6.78;4.22;;;;;;;;;;6640918;26;20001;-73
2024/04/10 02:59:23;;;;;;;9.85;3.67;;;;;;;;;;6657410;26;20011;-73
2024/04/10 03:02:26;;;;;;;11.50;4.18;;;;;;;;;;6648644;26;20001;-73
2024/04/10 03:05:29;;;;;;;7.32;3.22;;;;;;;;;;6641110;26;20008;-73
2024/04/10 03:08:36;;;;;;;8.77;3.78;;;;;;;;;;6658471;26;20602;-74
2024/04/10 03:11:38;;;;;;;6.70;3.50;;;;;;;;;;6617083;26;20051;-73
2024/04/10 03:14:42;;;;;;;6.55;3.42;;;;;;;;;;6623681;26;20370;-75
2024/04/10 03:17:48;;;;;;;7.30;3.53;;;;;;;;;;6623115;26;20457;-74
2024/04/10 03:20:51;;;;;;;8.10;3.50;;;;;;;;;;6647014;26;20087;-74
2024/04/10 03:23:53;;;;;;;8.45;3.33;;;;;;;;;;6641936;26;20326;-72
2024/04/10 03:26:56;;;;;;;6.65;3.15;;;;;;;;;;6649079;26;20008;-74
2024/04/10 03:29:58;;;;;;;7.45;3.85;;;;;;;;;;6597366;26;20000;-73
2024/04/10 03:33:01;;;;;;;5.82;3.15;;;;;;;;;;6648683;26;20093;-73
2024/04/10 03:36:04;;;;;;;8.13;3.33;;;;;;;;;;6652920;26;20561;-73
2024/04/10 03:39:08;;;;;;;7.93;3.28;;;;;;;;;;6634052;26;20004;-73
2024/04/10 03:42:10;;;;;;;3.90;3.28;;;;;;;;;;6645543;26;20048;-73
2024/04/10 03:45:14;;;;;;;7.82;4.30;;;;;;;;;;6616970;26;20049;-73
2024/04/10 03:48:18;;;;;;;5.18;3.15;;;;;;;;;;6668973;26;20000;-73
2024/04/10 03:51:21;;;;;;;9.05;3.05;;;;;;;;;;6644115;26;19997;-73
2024/04/10 03:54:24;;;;;;;7.22;2.97;;;;;;;;;;6612539;26;20004;-75
2024/04/10 03:57:28;;;;;;;6.95;3.85;;;;;;;;;;6644419;26;20020;-74
2024/04/10 04:00:30;;;;;;;7.78;2.90;;;;;;;;;;6642434;26;20001;-74
2024/04/10 04:03:33;;;;;;;4.50;3.45;;;;;;;;;;6655935;26;20004;-74
2024/04/10 04:06:37;;;;;;;6.18;3.30;;;;;;;;;;6658613;26;20504;-74
2024/04/10 04:09:39;;;;;;;4.45;2.67;;;;;;;;;;6626984;26;20000;-73
2024/04/10 04:12:42;;;;;;;5.07;3.47;;;;;;;;;;6646114;26;20048;-73
2024/04/10 04:15:45;;;;;;;5.70;3.47;;;;;;;;;;6653115;26;20067;-74
2024/04/10 04:18:47;;;;;;;8.95;2.92;;;;;;;;;;6652478;26;20004;-74
2024/04/10 04:21:50;;;;;;;9.45;3.17;;;;;;;;;;6646941;26;20622;-74
2024/04/10 04:24:53;;;;;;;9.02;3.40;;;;;;;;;;6642832;26;20918;-74
2024/04/10 04:27:56;;;;;;;5.97;3.15;;;;;;;;;;6608975;26;20036;-74
2024/04/10 04:30:59;;;;;;;13.48;3.97;;;;;;;;;;6610906;26;20473;-72
2024/04/10 04:34:09;;;;;;;6.18;2.90;;;;;;;;;;6655478;26;20073;-74
2024/04/10 04:37:12;;;;;;;5.70;3.72;;;;;;;;;;6605903;26;20024;-74
2024/04/10 04:40:16;;;;;;;9.95;5.10;;;;;;;;;;6647046;26;20040;-74
2024/04/10 04:43:18;;;;;;;8.75;4.30;;;;;;;;;;6640306;26;20000;-73
2024/04/10 04:46:21;;;;;;;11.95;3.33;;;;;;;;;;6594264;26;20424;-74
2024/04/10 04:49:24;;;;;;;40.17;25.60;;;;;;;;;;6642343;26;19997;-75
2024/04/10 04:52:29;;;;;;;25.23;16.92;;;;;;;;;;6642848;26;19997;-76
2024/04/10 04:55:31;;;;;;;36.25;21.38;;;;;;;;;;6618108;26;20053;-75
2024/04/10 04:58:34;;;;;;;30.80;19.50;;;;;;;;;;6645844;26;20009;-76
2024/04/10 05:01:36;;;;;;;13.77;8.10;;;;;;;;;;6645569;26;20048;-74
2024/04/10 05:05:00;;;;;;;35.78;17.25;;;;;;;;;;6620877;26;20349;-73
2024/04/10 05:08:05;;;;;;;16.70;7.80;;;;;;;;;;6651332;26;20759;-74
2024/04/10 05:11:08;;;;;;;11.02;7.75;;;;;;;;;;6647493;26;20019;-73
2024/04/10 05:14:12;;;;;;;9.48;4.55;;;;;;;;;;6643503;26;20005;-74
2024/04/10 05:17:16;;;;;;;8.55;5.32;;;;;;;;;;6641763;26;20010;-74
2024/04/10 05:20:19;;;;;;;12.88;8.30;;;;;;;;;;6621279;26;20047;-73
2024/04/10 05:23:22;;;;;;;8.85;6.95;;;;;;;;;;6652062;26;20530;-76
2024/04/10 05:26:26;;;;;;;11.07;8.35;;;;;;;;;;6655968;26;20004;-72
2024/04/10 05:29:29;;;;;;;7.43;4.40;;;;;;;;;;6645203;26;20073;-73
2024/04/10 05:32:34;;;;;;;7.05;5.43;;;;;;;;;;6651102;26;20011;-73
2024/04/10 05:35:40;;;;;;;8.32;3.65;;;;;;;;;;6647945;26;20005;-73
2024/04/10 05:38:45;;;;;;;17.48;12.15;;;;;;;;;;6643141;26;20878;-72
2024/04/10 05:41:48;;;;;;;6.43;4.32;;;;;;;;;;6652741;26;20027;-74
2024/04/10 05:44:51;;;;;;;13.38;4.07;;;;;;;;;;6648348;26;20004;-73
2024/04/10 05:47:53;;;;;;;6.78;4.03;;;;;;;;;;6649685;26;20022;-72
2024/04/10 05:50:59;;;;;;;6.03;3.70;;;;;;;;;;6634071;26;20008;-72
2024/04/10 05:54:03;;;;;;;4.88;3.70;;;;;;;;;;6659980;26;20403;-72
2024/04/10 05:57:06;;;;;;;7.57;4.05;;;;;;;;;;6644930;26;20009;-75
2024/04/10 06:00:11;;;;;;;4.85;2.78;;;;;;;;;;6657701;26;20012;-74
2024/04/10 06:03:14;;;;;;;6.75;3.72;;;;;;;;;;6638632;26;20015;-73
2024/04/10 06:06:17;;;;;;;9.52;3.50;;;;;;;;;;6625875;26;20032;-74
2024/04/10 06:09:20;;;;;;;3.97;2.42;;;;;;;;;;6645242;26;20812;-74
2024/04/10 06:12:23;;;;;;;11.80;3.58;;;;;;;;;;6645821;26;20021;-74
2024/04/10 06:15:26;;;;;;;16.73;6.55;;;;;;;;;;6631448;26;20012;-73
2024/04/10 06:18:29;;;;;;;14.27;5.95;;;;;;;;;;6638662;26;20557;-73
2024/04/10 06:21:33;;;;;;;5.22;3.10;;;;;;;;;;6633211;26;20016;-73
2024/04/10 06:24:35;;;;;;;5.30;3.10;;;;;;;;;;6656110;26;20048;-74
2024/04/10 06:27:38;;;;;;;8.77;3.55;;;;;;;;;;6647914;26;20497;-74
2024/04/10 06:30:43;;;;;;;5.22;2.15;;;;;;;;;;6640933;26;20453;-73
2024/04/10 06:33:45;;;;;;;7.57;5.82;;;;;;;;;;6644643;26;20094;-73
2024/04/10 06:36:52;;;;;;;8.15;4.15;;;;;;;;;;6619648;26;20024;-73
2024/04/10 06:39:55;;;;;;;6.47;3.00;;;;;;;;;;6596324;26;20458;-73
2024/04/10 06:42:57;;;;;;;5.85;2.58;;;;;;;;;;6649658;26;20008;-74
2024/04/10 06:46:03;;;;;;;6.57;2.90;;;;;;;;;;6649491;26;20015;-72
2024/04/10 06:49:06;;;;;;;11.68;3.60;;;;;;;;;;6625930;26;20019;-72
2024/04/10 06:52:09;;;;;;;5.90;3.42;;;;;;;;;;6652610;26;19996;-72
2024/04/10 06:55:12;;;;;;;13.25;3.45;;;;;;;;;;6634570;26;20083;-71
2024/04/10 06:58:14;;;;;;;8.18;4.53;;;;;;;;;;6647584;26;20492;-71
2024/04/10 07:01:17;;;;;;;9.43;5.35;;;;;;;;;;6638852;26;20004;-71
2024/04/10 07:04:20;;;;;;;12.63;5.13;;;;;;;;;;6655550;26;19997;-71
2024/04/10 07:07:22;;;;;;;14.25;5.03;;;;;;;;;;6641518;26;20661;-72
2024/04/10 07:10:26;;;;;;;11.85;5.70;;;;;;;;;;6609991;26;20044;-72
2024/04/10 07:13:28;;;;;;;8.55;4.97;;;;;;;;;;6638085;26;20012;-71
2024/04/10 07:16:32;;;;;;;10.18;4.65;;;;;;;;;;6667806;26;20049;-72
2024/04/10 07:19:34;;;;;;;7.80;4.28;;;;;;;;;;6645804;26;20009;-72
2024/04/10 07:22:37;;;;;;;8.23;4.15;;;;;;;;;;6645531;26;20523;-72
2024/04/10 07:25:40;;;;;;;13.25;4.35;;;;;;;;;;6644123;26;20057;-72
2024/04/10 07:28:45;;;;;;;10.45;5.07;;;;;;;;;;6599196;26;20004;-72
2024/04/10 07:31:49;;;;;;;9.55;4.30;;;;;;;;;;6647213;26;20061;-73
2024/04/10 07:34:52;;;;;;;6.47;3.60;;;;;;;;;;6620218;26;20001;-73
2024/04/10 07:37:55;;;;;;;11.00;3.90;;;;;;;;;;6639847;26;20015;-71
2024/04/10 07:41:01;;;;;;;10.52;4.25;;;;;;;;;;6630854;26;20004;-73
2024/04/10 07:44:05;;;;;;;7.07;4.15;;;;;;;;;;6648483;26;20754;-73
2024/04/10 07:47:09;;;;;;;6.40;3.47;;;;;;;;;;6592304;26;20020;-72
2024/04/10 07:51:51;;;;;;;10.60;4.00;;;;;;;;;;6856405;25;20510;-73
2024/04/10 07:54:54;;;;;;;8.23;3.55;;;;;;;;;;6778961;26;19994;-73
2024/04/10 07:57:56;;;;;;;11.30;3.50;;;;;;;;;;6778402;25;20420;-73
2024/04/10 08:01:00;;;;;;;7.50;2.95;;;;;;;;;;6785979;26;20365;-73
2024/04/10 08:04:06;;;;;;;5.75;2.80;;;;;;;;;;6807031;26;20035;-73
2024/04/10 08:07:10;;;;;;;8.23;3.53;;;;;;;;;;6798304;25;20968;-73
2024/04/10 08:10:13;;;;;;;9.63;2.38;;;;;;;;;;6813218;25;20543;-73
2024/04/10 08:13:15;;;;;;;6.05;3.15;;;;;;;;;;6812680;26;20834;-73
2024/04/10 08:16:18;;;;;;;8.00;2.35;;;;;;;;;;6813154;26;20074;-71
2024/04/10 08:19:21;;;;;;;7.80;3.45;;;;;;;;;;6815893;26;20016;-75
2024/04/10 08:22:23;;;;;;;9.85;2.35;;;;;;;;;;6796529;25;20017;-74
2024/04/10 08:25:30;;;;;;;6.68;2.63;;;;;;;;;;6801288;25;20002;-73
2024/04/10 08:28:34;;;;;;;3.72;1.63;;;;;;;;;;6807934;25;20589;-74
2024/04/10 08:31:36;;;;;;;8.13;2.90;;;;;;;;;;6814709;26;20009;-74
2024/04/10 08:34:39;;;;;;;6.40;2.50;;;;;;;;;;6801554;26;20340;-73
2024/04/10 08:37:42;;;;;;;5.78;2.15;;;;;;;;;;6808846;25;20021;-74
2024/04/10 08:40:45;;;;;;;3.28;1.58;;;;;;;;;;6811696;25;20017;-74
2024/04/10 08:43:50;;;;;;;9.50;1.92;;;;;;;;;;6803944;26;20036;-72
2024/04/10 08:46:55;;;;;;;4.18;1.15;;;;;;;;;;6804401;26;20050;-73
2024/04/10 08:49:59;;;;;;;4.45;1.80;;;;;;;;;;6778013;26;20017;-73
2024/04/10 08:53:02;;;;;;;4.97;2.50;;;;;;;;;;6802753;25;20016;-73
2024/04/10 08:56:05;;;;;;;3.67;1.67;;;;;;;;;;6808740;26;19994;-72
2024/04/10 08:59:12;;;;;;;2.13;1.13;;;;;;;;;;6811839;26;20006;-73
2024/04/10 09:02:14;;;;;;;5.90;1.77;;;;;;;;;;6795575;26;19998;-73
2024/04/10 09:05:27;;;;;;;3.75;1.40;;;;;;;;;;6778698;26;20006;-73
2024/04/10 09:08:29;;;;;;;6.05;1.45;;;;;;;;;;6782842;26;20455;-73
2024/04/10 09:11:32;;;;;;;2.50;1.30;;;;;;;;;;6758571;26;20006;-72
2024/04/10 09:14:35;;;;;;;7.80;1.60;;;;;;;;;;6731987;26;20009;-73
2024/04/10 09:17:38;;;;;;;4.30;1.50;;;;;;;;;;6789285;26;20006;-74
2024/04/10 09:20:41;;;;;;;4.38;1.20;;;;;;;;;;6783850;26;20014;-73
2024/04/10 09:23:44;;;;;;;3.95;1.13;;;;;;;;;;6780597;26;20009;-73
2024/04/10 09:26:48;;;;;;;2.30;1.13;;;;;;;;;;6834565;25;20020;-73
2024/04/10 09:29:59;;;;;;;2.92;1.10;;;;;;;;;;6788947;26;20017;-72
2024/04/10 09:33:03;;;;;;;2.20;1.08;;;;;;;;;;6784637;26;20491;-73
2024/04/10 09:36:08;;;;;;;4.47;1.20;;;;;;;;;;6806644;26;20053;-73
2024/04/10 09:39:11;;;;;;;;;;;;;;;;;;6790445;26;19994;-73
2024/04/10 09:42:27;;;;;;;3.25;1.05;;;;;;;;;;6760583;26;19947;-73
2024/04/10 09:45:37;;;;;;;4.65;1.52;;;;;;;;;;6780094;26;20027;-74
2024/04/10 09:48:44;;;;;;;3.72;1.20;;;;;;;;;;6811149;26;20379;-73
2024/04/10 09:51:47;;;;;;;2.80;1.00;;;;;;;;;;6794314;26;20002;-73
2024/04/10 09:54:50;;;;;;;2.22;1.20;;;;;;;;;;6757209;26;20013;-73
2024/04/10 09:57:52;;;;;;;4.47;0.90;;;;;;;;;;6763036;26;20002;-73
2024/04/10 10:00:55;;;;;;;3.88;0.90;;;;;;;;;;6730346;26;20030;-74
2024/04/10 10:03:58;;;;;;;3.45;0.90;;;;;;;;;;6793766;26;20012;-73
2024/04/10 10:07:01;;;;;;;2.45;0.98;;;;;;;;;;6789062;26;20038;-73
2024/04/10 10:10:05;;;;;;;3.28;1.13;;;;;;;;;;6794543;26;20223;-73
2024/04/10 10:13:08;;;;;;;2.33;0.88;;;;;;;;;;6804989;26;20042;-73
2024/04/10 10:16:12;;;;;;;1.75;0.80;;;;;;;;;;6766735;26;20022;-74
2024/04/10 10:19:19;;;;;;;;;;;;;;;;;;6754042;26;20737;-74
2024/04/10 10:22:22;;;;;;;4.85;1.25;;;;;;;;;;6765004;26;20373;-75
2024/04/10 10:25:25;;;;;;;3.63;0.80;;;;;;;;;;6797915;26;19994;-75
2024/04/10 10:28:32;;;;;;;3.38;0.70;;;;;;;;;;6787239;26;19998;-76
2024/04/10 10:31:35;;;;;;;2.13;0.88;;;;;;;;;;6765910;26;20041;-75
2024/04/10 10:34:38;;;;;;;2.13;0.68;;;;;;;;;;6782032;26;20006;-75
2024/04/10 10:37:42;;;;;;;2.67;0.93;;;;;;;;;;6786746;26;20766;-75
2024/04/10 10:40:45;;;;;;;3.25;1.05;;;;;;;;;;6794751;26;20811;-75
2024/04/10 10:43:47;;;;;;;3.92;0.80;;;;;;;;;;6745777;26;19998;-75
2024/04/10 10:46:52;;;;;;;2.08;0.73;;;;;;;;;;6752867;26;20038;-75
2024/04/10 10:50:03;;;;;;;1.98;0.88;;;;;;;;;;6784182;26;19999;-74
2024/04/10 10:53:08;;;;;;;7.90;2.10;;;;;;;;;;6761195;26;19998;-74
2024/04/10 10:56:23;;;;;;;4.72;1.55;;;;;;;;;;6751210;26;19998;-74
2024/04/10 10:59:26;;;;;;;4.20;0.85;;;;;;;;;;6781673;26;20026;-74
2024/04/10 11:02:28;;;;;;;4.28;1.23;;;;;;;;;;6784167;26;20991;-74
2024/04/10 11:05:32;;;;;;;2.45;1.15;;;;;;;;;;6787262;26;20850;-74
2024/04/10 11:08:35;;;;;;;6.30;1.88;;;;;;;;;;6793077;26;20150;-75
2024/04/10 11:11:39;;;;;;;4.15;0.80;;;;;;;;;;6779499;26;20006;-74
2024/04/10 11:14:43;;;;;;;2.92;0.70;;;;;;;;;;6762972;26;19998;-74
2024/04/10 11:17:45;;;;;;;2.80;1.55;;;;;;;;;;6789801;26;20014;-75
2024/04/10 11:20:51;;;;;;;3.50;0.80;;;;;;;;;;6786838;26;20006;-75
2024/04/10 11:23:54;;;;;;;4.95;1.25;;;;;;;;;;6788182;26;20021;-76
2024/04/10 11:26:56;;;;;;;1.70;0.60;;;;;;;;;;6774810;26;20003;-76
2024/04/10 11:30:00;;;;;;;15.02;0.90;;;;;;;;;;6789133;26;20002;-76
2024/04/10 11:33:08;;;;;;;4.25;1.10;;;;;;;;;;6786605;26;20078;-75
2024/04/10 11:36:11;;;;;;;3.75;1.38;;;;;;;;;;6759873;26;20540;-75
2024/04/10 11:39:14;;;;;;;2.95;0.80;;;;;;;;;;6742867;26;20078;-75
2024/04/10 11:42:17;;;;;;;3.17;0.80;;;;;;;;;;6790899;26;20021;-75
2024/04/10 11:45:20;;;;;;;3.47;0.77;;;;;;;;;;6759798;26;20002;-75
2024/04/10 11:48:23;;;;;;;2.17;0.80;;;;;;;;;;6781363;26;20002;-74
2024/04/10 11:51:26;;;;;;;1.83;0.80;;;;;;;;;;6789789;26;20082;-75
2024/04/10 11:54:28;;;;;;;2.22;0.75;;;;;;;;;;6827931;25;20005;-75
2024/04/10 11:57:31;;;;;;;3.28;0.80;;;;;;;;;;6762931;26;20905;-74
2024/04/10 12:00:34;;;;;;;1.98;0.70;;;;;;;;;;6785364;26;20002;-74
2024/04/10 12:03:37;;;;;;;4.78;0.73;;;;;;;;;;6792479;26;20796;-76
2024/04/10 12:06:40;;;;;;;3.08;1.00;;;;;;;;;;6789599;26;20561;-74
2024/04/10 12:09:43;;;;;;;2.10;0.80;;;;;;;;;;6781459;26;19999;-74
2024/04/10 12:12:48;;;;;;;2.60;0.80;;;;;;;;;;6755621;26;20014;-75
2024/04/10 12:15:52;;;;;;;3.70;1.13;;;;;;;;;;6790060;26;20542;-75
2024/04/10 12:18:54;;;;;;;2.40;1.13;;;;;;;;;;6789828;26;19994;-74
2024/04/10 12:21:57;;;;;;;2.60;1.00;;;;;;;;;;6793738;26;19999;-75
2024/04/10 12:25:00;;;;;;;1.98;0.80;;;;;;;;;;6786236;26;20003;-76
2024/04/10 12:28:03;;;;;;;3.63;0.88;;;;;;;;;;6748140;26;20020;-75
2024/04/10 12:31:06;;;;;;;4.28;0.95;;;;;;;;;;6788680;26;20019;-75
2024/04/10 12:34:09;;;;;;;3.35;1.70;;;;;;;;;;6724907;26;20006;-75
2024/04/10 12:40:37;;;;;;;4.82;1.20;;;;;;;;;;6791683;26;20561;-75
2024/04/10 12:43:42;;;;;;;3.83;0.73;;;;;;;;;;6786464;26;20019;-75
2024/04/10 12:46:50;;;;;;;1.35;0.65;;;;;;;;;;6794631;26;19998;-75
2024/04/10 12:49:52;;;;;;;1.95;0.75;;;;;;;;;;6764412;26;20009;-75
2024/04/10 12:52:55;;;;;;;2.78;0.85;;;;;;;;;;6764593;26;20006;-75
2024/04/10 12:55:58;;;;;;;8.52;0.85;;;;;;;;;;6762245;26;20604;-74
2024/04/10 12:59:00;;;;;;;2.13;0.88;;;;;;;;;;6844617;25;20002;-75
2024/04/10 13:02:06;;;;;;;2.65;0.68;;;;;;;;;;6751579;26;20074;-75
2024/04/10 13:05:09;;;;;;;7.13;0.90;;;;;;;;;;6793329;26;20002;-75
2024/04/10 13:19:07;;;;;;;3.97;2.13;;;;;;;;;;6862817;25;21025;-73
2024/04/10 13:22:09;;;;;;;2.28;1.38;;;;;;;;;;6818415;26;20016;-74
2024/04/10 13:25:12;;;;;;;2.85;0.80;;;;;;;;;;6866644;25;19994;-74
2024/04/10 13:28:15;;;;;;;5.97;1.00;;;;;;;;;;6849885;25;20391;-74
2024/04/10 13:31:20;;;;;;;2.25;0.73;;;;;;;;;;6836453;25;20439;-74
2024/04/10 13:34:24;;;;;;;6.13;1.05;;;;;;;;;;6840849;25;20014;-74
2024/04/10 13:37:27;;;;;;;1.88;0.75;;;;;;;;;;6820722;26;20025;-74
2024/04/10 13:40:39;;;;;;;3.95;0.88;;;;;;;;;;6825994;25;19998;-74
2024/04/10 13:43:42;;;;;;;3.92;1.45;;;;;;;;;;6789903;26;20050;-74
2024/04/10 13:46:45;;;;;;;5.05;1.23;;;;;;;;;;6821744;25;20025;-74
2024/04/10 13:49:48;;;;;;;5.38;0.90;;;;;;;;;;6812355;25;19999;-75
2024/04/10 13:52:50;;;;;;;4.03;1.90;;;;;;;;;;6806438;26;20578;-74
2024/04/10 13:56:09;;;;;;;2.20;0.90;;;;;;;;;;6820345;25;20102;-74
2024/04/10 13:59:13;;;;;;;5.07;1.00;;;;;;;;;;6880872;25;20012;-75
2024/04/10 14:02:15;;;;;;;4.22;1.10;;;;;;;;;;6820648;26;20518;-75
2024/04/10 14:05:18;;;;;;;3.10;0.95;;;;;;;;;;6819855;25;20086;-74
2024/04/10 14:08:21;;;;;;;3.97;0.95;;;;;;;;;;6818781;26;20021;-74
2024/04/10 14:11:23;;;;;;;4.13;1.65;;;;;;;;;;6823537;25;20550;-74
2024/04/10 14:14:26;;;;;;;4.57;1.10;;;;;;;;;;6860164;25;20012;-74
2024/04/10 14:17:30;;;;;;;3.72;0.80;;;;;;;;;;6863870;25;20021;-74
2024/04/10 14:20:33;;;;;;;3.58;1.42;;;;;;;;;;6749873;26;20008;-74
2024/04/10 14:23:36;;;;;;;3.65;1.40;;;;;;;;;;6799668;26;20002;-74
2024/04/10 14:26:38;;;;;;;2.08;1.00;;;;;;;;;;6802347;25;20002;-74
2024/04/10 14:29:41;;;;;;;4.78;1.42;;;;;;;;;;6776680;26;20010;-73
2024/04/10 14:32:44;;;;;;;3.85;1.25;;;;;;;;;;6857515;25;20447;-74
2024/04/10 14:35:47;;;;;;;5.03;1.30;;;;;;;;;;6772591;26;20015;-74
2024/04/10 14:38:49;;;;;;;3.05;1.65;;;;;;;;;;6804177;26;20021;-74
2024/04/10 14:41:53;;;;;;;2.53;1.17;;;;;;;;;;6848159;25;20006;-73
2024/04/10 14:44:56;;;;;;;7.28;1.23;;;;;;;;;;6764757;26;20080;-74
2024/04/10 14:47:58;;;;;;;9.15;1.13;;;;;;;;;;6850222;25;20032;-74
2024/04/10 14:51:02;;;;;;;3.95;1.15;;;;;;;;;;6818511;25;20017;-74
2024/04/10 14:54:05;;;;;;;3.70;1.40;;;;;;;;;;6795988;26;19998;-74
2024/04/10 14:57:09;;;;;;;3.28;0.73;;;;;;;;;;6807016;26;19999;-73
2024/04/10 15:00:12;;;;;;;3.13;1.02;;;;;;;;;;6808346;26;20002;-74
2024/04/10 15:03:15;;;;;;;2.00;1.10;;;;;;;;;;6798236;26;20480;-73
2024/04/10 15:06:17;;;;;;;2.17;0.95;;;;;;;;;;6805268;26;19995;-74
2024/04/10 15:09:21;;;;;;;5.00;1.17;;;;;;;;;;6829577;25;19998;-74
2024/04/10 15:12:24;;;;;;;5.38;1.17;;;;;;;;;;6802856;26;20042;-75
2024/04/10 15:15:26;;;;;;;2.88;0.85;;;;;;;;;;6814238;25;20012;-74
2024/04/10 15:18:29;;;;;;;2.15;0.80;;;;;;;;;;6827957;26;20095;-73
2024/04/10 15:21:32;;;;;;;4.60;1.30;;;;;;;;;;6791787;26;20042;-73
2024/04/10 15:24:35;;;;;;;5.20;1.00;;;;;;;;;;6795059;26;20034;-73
2024/04/10 15:27:40;;;;;;;2.58;0.77;;;;;;;;;;6853083;25;20009;-77
2024/04/10 15:30:42;;;;;;;2.50;1.30;;;;;;;;;;6803462;26;19994;-74
2024/04/10 15:33:45;;;;;;;1.90;0.80;;;;;;;;;;6800153;26;20050;-73
2024/04/10 15:36:48;;;;;;;3.83;2.25;;;;;;;;;;6795277;26;20892;-72
2024/04/10 15:39:51;;;;;;;6.22;1.92;;;;;;;;;;6800933;26;19998;-73
2024/04/10 15:42:53;;;;;;;3.15;1.65;;;;;;;;;;6799618;26;20009;-73
2024/04/10 15:46:00;;;;;;;4.28;0.80;;;;;;;;;;6857680;25;20026;-73
2024/04/10 15:49:03;;;;;;;3.50;1.17;;;;;;;;;;6792442;26;20450;-72
2024/04/10 15:52:06;;;;;;;2.92;1.38;;;;;;;;;;6803690;26;20038;-72
2024/04/10 15:55:29;;;;;;;5.40;1.95;;;;;;;;;;6797109;26;20649;-73
2024/04/10 15:58:32;;;;;;;5.22;1.02;;;;;;;;;;6821082;25;19995;-73
2024/04/10 16:01:35;;;;;;;2.78;1.50;;;;;;;;;;6796481;26;20057;-73
2024/04/10 16:04:38;;;;;;;3.10;0.85;;;;;;;;;;6817325;26;20424;-72
2024/04/10 16:07:41;;;;;;;2.30;1.35;;;;;;;;;;6745819;26;20004;-73
2024/04/10 16:10:44;;;;;;;3.65;1.33;;;;;;;;;;6773597;25;20735;-73
2024/04/10 16:13:47;;;;;;;4.03;1.05;;;;;;;;;;6813514;26;20372;-73
2024/04/10 16:16:53;;;;;;;2.83;1.10;;;;;;;;;;6797065;26;20047;-73
2024/04/10 16:19:55;;;;;;;3.28;1.05;;;;;;;;;;6803743;26;20803;-72
2024/04/10 16:22:58;;;;;;;3.45;1.10;;;;;;;;;;6817472;25;19997;-74
2024/04/10 16:26:08;;;;;;;2.85;1.00;;;;;;;;;;6774586;26;20094;-74
2024/04/10 16:29:12;;;;;;;3.40;1.08;;;;;;;;;;6794042;26;20008;-73
2024/04/10 16:32:14;;;;;;;2.65;0.70;;;;;;;;;;6815265;26;20048;-74
2024/04/10 16:35:18;;;;;;;2.88;0.80;;;;;;;;;;6795873;26;20053;-73
2024/04/10 16:38:20;;;;;;;2.35;0.85;;;;;;;;;;6819173;26;20075;-73
2024/04/10 16:41:23;;;;;;;3.45;1.35;;;;;;;;;;6793787;26;20006;-74
2024/04/10 16:44:26;;;;;;;5.50;1.65;;;;;;;;;;6811588;26;20009;-73
2024/04/10 16:47:29;;;;;;;2.72;1.73;;;;;;;;;;6802926;26;20474;-72
2024/04/10 16:50:32;;;;;;;10.07;2.42;;;;;;;;;;6800475;25;21097;-72
2024/04/10 16:53:35;;;;;;;6.43;1.25;;;;;;;;;;6771883;26;20010;-73
2024/04/10 16:56:38;;;;;;;3.60;0.90;;;;;;;;;;6810935;25;19998;-73
2024/04/10 16:59:41;;;;;;;10.30;2.15;;;;;;;;;;6812899;25;20018;-73
2024/04/10 17:02:46;;;;;;;3.25;0.93;;;;;;;;;;6816373;26;20010;-72
2024/04/10 17:05:52;;;;;;;4.72;1.70;;;;;;;;;;6802863;26;20009;-72
2024/04/10 17:08:54;;;;;;;4.13;1.42;;;;;;;;;;6795195;26;20416;-72
2024/04/10 17:11:57;;;;;;;4.28;1.10;;;;;;;;;;6813058;26;20012;-72
2024/04/10 17:15:00;;;;;;;5.75;1.48;;;;;;;;;;6805505;26;19994;-71
2024/04/10 17:24:45;;;;;;;7.60;2.97;;;;;;;;;;6798584;26;19998;-72
2024/04/10 17:27:48;;;;;;;7.05;3.10;;;;;;;;;;6795874;25;20036;-72
2024/04/10 17:30:58;;;;;;;36.60;4.95;;;;;;;;;;6794346;26;20008;-72
2024/04/10 17:34:01;;;;;;;6.63;1.83;;;;;;;;;;6804822;26;20021;-72
2024/04/10 17:37:04;;;;;;;6.07;1.98;;;;;;;;;;6778011;26;20006;-73
2024/04/10 17:40:07;;;;;;;7.35;4.40;;;;;;;;;;6808453;25;20018;-73
2024/04/10 17:43:09;;;;;;;3.97;2.60;;;;;;;;;;6785930;26;20033;-72
2024/04/10 17:46:12;;;;;;;6.35;1.67;;;;;;;;;;6791799;26;20016;-72
2024/04/10 17:49:16;;;;;;;3.90;2.25;;;;;;;;;;6794353;26;20010;-73
2024/04/10 17:52:19;;;;;;;4.18;2.00;;;;;;;;;;6780085;26;20054;-74
2024/04/10 17:55:21;;;;;;;5.22;1.95;;;;;;;;;;6779502;26;20038;-75
2024/04/10 17:58:24;;;;;;;4.07;1.75;;;;;;;;;;6794296;26;20003;-74
2024/04/10 18:01:27;;;;;;;4.03;1.63;;;;;;;;;;6778870;26;20375;-74
2024/04/10 18:04:29;;;;;;;2.33;1.70;;;;;;;;;;6794691;26;20416;-74
2024/04/10 18:07:32;;;;;;;5.90;1.88;;;;;;;;;;6796977;26;20083;-74
2024/04/10 18:10:35;;;;;;;3.45;1.48;;;;;;;;;;6768864;26;20017;-73
2024/04/10 18:13:40;;;;;;;6.63;1.75;;;;;;;;;;6791296;26;20367;-74
2024/04/10 18:16:44;;;;;;;6.22;4.22;;;;;;;;;;6784808;26;20021;-74
2024/04/10 18:19:46;;;;;;;9.95;8.32;;;;;;;;;;6794740;26;20476;-74
2024/04/10 18:22:49;;;;;;;12.93;11.20;;;;;;;;;;6826979;25;19998;-73
2024/04/10 18:26:02;;;;;;;5.22;4.28;;;;;;;;;;6798638;26;20010;-73
2024/04/10 18:29:09;;;;;;;4.07;1.88;;;;;;;;;;6788878;26;20014;-72
2024/04/10 18:32:13;;;;;;;2.75;1.83;;;;;;;;;;6818034;26;20088;-73
2024/04/10 18:35:15;;;;;;;7.32;2.97;;;;;;;;;;6770229;26;19999;-74
2024/04/10 18:38:18;;;;;;;5.03;3.45;;;;;;;;;;6784151;25;20544;-74
2024/04/10 18:41:21;;;;;;;8.15;2.20;;;;;;;;;;6798854;26;20013;-75
2024/04/10 18:44:23;;;;;;;8.25;4.72;;;;;;;;;;6778816;26;20100;-76